sensor_id;sensor_type;location;lat;lon;timestamp;temperature;humidity
47779;DHT22;33538;48.432;11.350;2024-01-15T00:01:47;-1.80;97.80
47779;DHT22;33538;48.432;11.350;2024-01-15T00:04:14;-1.80;97.90
47779;DHT22;33538;48.432;11.350;2024-01-15T00:06:41;-1.80;98.00
47779;DHT22;33538;48.432;11.350;2024-01-15T00:09:08;-1.80;98.00
47779;DHT22;33538;48.432;11.350;2024-01-15T00:11:35;-1.70;98.20
47779;DHT22;33538;48.432;11.350;2024-01-15T00:14:03;-1.80;98.20
47779;DHT22;33538;48.432;11.350;2024-01-15T00:16:29;-1.70;98.30
47779;DHT22;33538;48.432;11.350;2024-01-15T00:18:56;-1.70;98.30
47779;DHT22;33538;48.432;11.350;2024-01-15T00:21:23;-1.80;98.20
47779;DHT22;33538;48.432;11.350;2024-01-15T00:23:50;-1.80;98.30
47779;DHT22;33538;48.432;11.350;2024-01-15T00:26:17;-1.70;98.30
47779;DHT22;33538;48.432;11.350;2024-01-15T00:28:44;-1.70;98.30
47779;DHT22;33538;48.432;11.350;2024-01-15T00:31:12;-1.70;98.30
47779;DHT22;33538;48.432;11.350;2024-01-15T00:33:39;-1.70;98.20
47779;DHT22;33538;48.432;11.350;2024-01-15T00:36:06;-1.70;98.20
47779;DHT22;33538;48.432;11.350;2024-01-15T00:38:34;-1.70;98.20
47779;DHT22;33538;48.432;11.350;2024-01-15T00:41:00;-1.70;98.20
47779;DHT22;33538;48.432;11.350;2024-01-15T00:43:27;-1.70;98.10
47779;DHT22;33538;48.432;11.350;2024-01-15T00:45:54;-1.70;98.00
47779;DHT22;33538;48.432;11.350;2024-01-15T00:48:22;-1.70;98.00
47779;DHT22;33538;48.432;11.350;2024-01-15T00:50:49;-1.70;98.00
47779;DHT22;33538;48.432;11.350;2024-01-15T00:53:16;-1.70;97.90
47779;DHT22;33538;48.432;11.350;2024-01-15T00:55:43;-1.70;97.90
47779;DHT22;33538;48.432;11.350;2024-01-15T00:58:10;-1.70;97.90
47779;DHT22;33538;48.432;11.350;2024-01-15T01:00:36;-1.70;97.80
47779;DHT22;33538;48.432;11.350;2024-01-15T01:03:04;-1.70;97.80
47779;DHT22;33538;48.432;11.350;2024-01-15T01:05:33;-1.70;97.70
47779;DHT22;33538;48.432;11.350;2024-01-15T01:08:00;-1.70;97.70
47779;DHT22;33538;48.432;11.350;2024-01-15T01:10:27;-1.70;97.70
47779;DHT22;33538;48.432;11.350;2024-01-15T01:12:54;-1.70;97.70
47779;DHT22;33538;48.432;11.350;2024-01-15T01:15:21;-1.70;97.70
47779;DHT22;33538;48.432;11.350;2024-01-15T01:17:48;-1.80;97.80
47779;DHT22;33538;48.432;11.350;2024-01-15T01:20:15;-1.80;97.80
47779;DHT22;33538;48.432;11.350;2024-01-15T01:22:46;-1.80;97.90
47779;DHT22;33538;48.432;11.350;2024-01-15T01:25:13;-1.70;98.00
47779;DHT22;33538;48.432;11.350;2024-01-15T01:27:40;-1.70;98.00
47779;DHT22;33538;48.432;11.350;2024-01-15T01:30:08;-1.80;98.10
47779;DHT22;33538;48.432;11.350;2024-01-15T01:32:35;-1.80;98.10
47779;DHT22;33538;48.432;11.350;2024-01-15T01:35:02;-1.70;98.20
47779;DHT22;33538;48.432;11.350;2024-01-15T01:37:29;-1.80;98.20
47779;DHT22;33538;48.432;11.350;2024-01-15T01:39:57;-1.80;98.30
47779;DHT22;33538;48.432;11.350;2024-01-15T01:42:24;-1.70;98.30
47779;DHT22;33538;48.432;11.350;2024-01-15T01:44:51;-1.70;98.40
47779;DHT22;33538;48.432;11.350;2024-01-15T01:47:18;-1.70;98.40
47779;DHT22;33538;48.432;11.350;2024-01-15T01:49:46;-1.70;98.50
47779;DHT22;33538;48.432;11.350;2024-01-15T01:52:13;-1.70;98.50
47779;DHT22;33538;48.432;11.350;2024-01-15T01:54:40;-1.70;98.50
47779;DHT22;33538;48.432;11.350;2024-01-15T01:57:09;-1.70;98.60
47779;DHT22;33538;48.432;11.350;2024-01-15T01:59:37;-1.70;98.60
47779;DHT22;33538;48.432;11.350;2024-01-15T02:02:05;-1.70;98.60
47779;DHT22;33538;48.432;11.350;2024-01-15T02:04:32;-1.70;98.60
47779;DHT22;33538;48.432;11.350;2024-01-15T02:07:00;-1.70;98.60
47779;DHT22;33538;48.432;11.350;2024-01-15T02:09:27;-1.70;98.70
47779;DHT22;33538;48.432;11.350;2024-01-15T02:11:54;-1.70;98.70
47779;DHT22;33538;48.432;11.350;2024-01-15T02:14:22;-1.70;98.70
47779;DHT22;33538;48.432;11.350;2024-01-15T02:16:49;-1.70;98.60
47779;DHT22;33538;48.432;11.350;2024-01-15T02:19:16;-1.70;98.60
47779;DHT22;33538;48.432;11.350;2024-01-15T02:21:43;-1.70;98.50
47779;DHT22;33538;48.432;11.350;2024-01-15T02:24:12;-1.70;98.50
47779;DHT22;33538;48.432;11.350;2024-01-15T02:26:39;-1.70;98.50
47779;DHT22;33538;48.432;11.350;2024-01-15T02:29:07;-1.70;98.40
47779;DHT22;33538;48.432;11.350;2024-01-15T02:31:34;-1.70;98.40
47779;DHT22;33538;48.432;11.350;2024-01-15T02:34:01;-1.70;98.30
47779;DHT22;33538;48.432;11.350;2024-01-15T02:36:28;-1.70;98.20
47779;DHT22;33538;48.432;11.350;2024-01-15T02:38:54;-1.70;98.20
47779;DHT22;33538;48.432;11.350;2024-01-15T02:41:23;-1.70;98.10
47779;DHT22;33538;48.432;11.350;2024-01-15T02:43:49;-1.70;98.10
47779;DHT22;33538;48.432;11.350;2024-01-15T02:46:16;-1.70;98.10
47779;DHT22;33538;48.432;11.350;2024-01-15T02:48:43;-1.80;98.00
47779;DHT22;33538;48.432;11.350;2024-01-15T02:51:10;-1.80;97.90
47779;DHT22;33538;48.432;11.350;2024-01-15T02:53:37;-1.70;97.90
47779;DHT22;33538;48.432;11.350;2024-01-15T02:56:04;-1.80;97.80
47779;DHT22;33538;48.432;11.350;2024-01-15T02:58:32;-1.70;97.70
47779;DHT22;33538;48.432;11.350;2024-01-15T03:00:59;-1.70;97.70
47779;DHT22;33538;48.432;11.350;2024-01-15T03:03:26;-1.80;97.60
47779;DHT22;33538;48.432;11.350;2024-01-15T03:05:53;-1.80;97.60
47779;DHT22;33538;48.432;11.350;2024-01-15T03:08:20;-1.80;97.50
47779;DHT22;33538;48.432;11.350;2024-01-15T03:10:47;-1.80;97.50
47779;DHT22;33538;48.432;11.350;2024-01-15T03:13:13;-1.80;97.50
47779;DHT22;33538;48.432;11.350;2024-01-15T03:15:43;-1.80;97.40
47779;DHT22;33538;48.432;11.350;2024-01-15T03:18:10;-1.80;97.40
47779;DHT22;33538;48.432;11.350;2024-01-15T03:20:37;-1.80;97.30
47779;DHT22;33538;48.432;11.350;2024-01-15T03:23:04;-1.80;97.30
47779;DHT22;33538;48.432;11.350;2024-01-15T03:25:31;-1.80;97.20
47779;DHT22;33538;48.432;11.350;2024-01-15T03:27:57;-1.80;97.20
47779;DHT22;33538;48.432;11.350;2024-01-15T03:30:24;-1.80;97.00
47779;DHT22;33538;48.432;11.350;2024-01-15T03:32:53;-1.80;97.00
47779;DHT22;33538;48.432;11.350;2024-01-15T03:35:19;-1.80;96.90
47779;DHT22;33538;48.432;11.350;2024-01-15T03:37:46;-1.80;96.90
47779;DHT22;33538;48.432;11.350;2024-01-15T03:40:13;-1.80;96.80
47779;DHT22;33538;48.432;11.350;2024-01-15T03:42:40;-1.90;96.80
47779;DHT22;33538;48.432;11.350;2024-01-15T03:45:07;-1.90;96.80
47779;DHT22;33538;48.432;11.350;2024-01-15T03:47:34;-1.80;96.90
47779;DHT22;33538;48.432;11.350;2024-01-15T03:50:02;-1.90;96.80
47779;DHT22;33538;48.432;11.350;2024-01-15T03:52:29;-1.90;96.80
47779;DHT22;33538;48.432;11.350;2024-01-15T03:54:56;-1.90;96.80
47779;DHT22;33538;48.432;11.350;2024-01-15T03:57:23;-1.90;96.80
47779;DHT22;33538;48.432;11.350;2024-01-15T03:59:50;-1.90;96.80
47779;DHT22;33538;48.432;11.350;2024-01-15T04:02:17;-1.90;96.70
47779;DHT22;33538;48.432;11.350;2024-01-15T04:04:43;-1.90;96.60
47779;DHT22;33538;48.432;11.350;2024-01-15T04:07:12;-1.90;96.70
47779;DHT22;33538;48.432;11.350;2024-01-15T04:09:39;-1.90;96.50
47779;DHT22;33538;48.432;11.350;2024-01-15T04:12:06;-1.90;96.50
47779;DHT22;33538;48.432;11.350;2024-01-15T04:14:33;-1.90;96.50
47779;DHT22;33538;48.432;11.350;2024-01-15T04:16:59;-1.90;96.50
47779;DHT22;33538;48.432;11.350;2024-01-15T04:19:26;-1.90;96.50
47779;DHT22;33538;48.432;11.350;2024-01-15T04:21:53;-1.90;96.40
47779;DHT22;33538;48.432;11.350;2024-01-15T04:24:21;-1.90;96.50
47779;DHT22;33538;48.432;11.350;2024-01-15T04:26:48;-1.90;96.50
47779;DHT22;33538;48.432;11.350;2024-01-15T04:29:15;-1.90;96.40
47779;DHT22;33538;48.432;11.350;2024-01-15T04:31:42;-1.90;96.50
47779;DHT22;33538;48.432;11.350;2024-01-15T04:34:09;-1.90;96.40
47779;DHT22;33538;48.432;11.350;2024-01-15T04:36:39;-1.90;96.40
47779;DHT22;33538;48.432;11.350;2024-01-15T04:39:06;-1.90;96.30
47779;DHT22;33538;48.432;11.350;2024-01-15T04:41:34;-1.90;96.30
47779;DHT22;33538;48.432;11.350;2024-01-15T04:44:01;-1.90;96.30
47779;DHT22;33538;48.432;11.350;2024-01-15T04:46:28;-1.90;96.30
47779;DHT22;33538;48.432;11.350;2024-01-15T04:48:54;-1.90;96.30
47779;DHT22;33538;48.432;11.350;2024-01-15T04:51:21;-1.90;96.30
47779;DHT22;33538;48.432;11.350;2024-01-15T04:53:48;-1.90;96.30
47779;DHT22;33538;48.432;11.350;2024-01-15T04:56:15;-1.90;96.30
47779;DHT22;33538;48.432;11.350;2024-01-15T04:58:43;-1.90;96.30
47779;DHT22;33538;48.432;11.350;2024-01-15T05:01:10;-1.90;96.70
47779;DHT22;33538;48.432;11.350;2024-01-15T05:03:37;-1.90;96.40
47779;DHT22;33538;48.432;11.350;2024-01-15T05:06:04;-1.90;96.40
47779;DHT22;33538;48.432;11.350;2024-01-15T05:08:31;-1.90;96.40
47779;DHT22;33538;48.432;11.350;2024-01-15T05:10:58;-1.90;96.50
47779;DHT22;33538;48.432;11.350;2024-01-15T05:13:25;-1.90;96.50
47779;DHT22;33538;48.432;11.350;2024-01-15T05:15:53;-1.90;96.50
47779;DHT22;33538;48.432;11.350;2024-01-15T05:18:20;-1.90;96.50
47779;DHT22;33538;48.432;11.350;2024-01-15T05:20:47;-1.90;96.50
47779;DHT22;33538;48.432;11.350;2024-01-15T05:23:14;-1.90;96.50
47779;DHT22;33538;48.432;11.350;2024-01-15T05:25:41;-1.90;96.50
47779;DHT22;33538;48.432;11.350;2024-01-15T05:28:08;-1.90;96.60
47779;DHT22;33538;48.432;11.350;2024-01-15T05:30:35;-1.90;97.00
47779;DHT22;33538;48.432;11.350;2024-01-15T05:33:03;-1.90;96.60
47779;DHT22;33538;48.432;11.350;2024-01-15T05:35:31;-1.90;96.70
47779;DHT22;33538;48.432;11.350;2024-01-15T05:37:57;-1.90;96.70
47779;DHT22;33538;48.432;11.350;2024-01-15T05:40:24;-1.90;96.60
47779;DHT22;33538;48.432;11.350;2024-01-15T05:42:51;-1.90;97.00
47779;DHT22;33538;48.432;11.350;2024-01-15T05:45:18;-1.80;96.70
47779;DHT22;33538;48.432;11.350;2024-01-15T05:47:45;-1.90;96.60
47779;DHT22;33538;48.432;11.350;2024-01-15T05:50:13;-1.90;96.70
47779;DHT22;33538;48.432;11.350;2024-01-15T05:52:40;-1.80;96.70
47779;DHT22;33538;48.432;11.350;2024-01-15T05:55:07;-1.90;96.60
47779;DHT22;33538;48.432;11.350;2024-01-15T05:57:34;-1.90;96.70
47779;DHT22;33538;48.432;11.350;2024-01-15T06:00:01;-1.90;96.70
47779;DHT22;33538;48.432;11.350;2024-01-15T06:02:28;-1.90;96.80
47779;DHT22;33538;48.432;11.350;2024-01-15T06:04:55;-1.90;96.80
47779;DHT22;33538;48.432;11.350;2024-01-15T06:07:23;-1.80;96.90
47779;DHT22;33538;48.432;11.350;2024-01-15T06:09:50;-1.90;96.90
47779;DHT22;33538;48.432;11.350;2024-01-15T06:12:17;-1.80;96.90
47779;DHT22;33538;48.432;11.350;2024-01-15T06:14:44;-1.80;97.00
47779;DHT22;33538;48.432;11.350;2024-01-15T06:17:12;-1.80;97.00
47779;DHT22;33538;48.432;11.350;2024-01-15T06:19:38;-1.80;97.00
47779;DHT22;33538;48.432;11.350;2024-01-15T06:22:05;-1.80;97.20
47779;DHT22;33538;48.432;11.350;2024-01-15T06:24:33;-1.80;97.20
47779;DHT22;33538;48.432;11.350;2024-01-15T06:27:00;-1.80;97.20
47779;DHT22;33538;48.432;11.350;2024-01-15T06:29:28;-1.80;97.30
47779;DHT22;33538;48.432;11.350;2024-01-15T06:31:55;-1.80;97.30
47779;DHT22;33538;48.432;11.350;2024-01-15T06:34:22;-1.70;97.40
47779;DHT22;33538;48.432;11.350;2024-01-15T06:36:49;-1.80;97.50
47779;DHT22;33538;48.432;11.350;2024-01-15T06:39:15;-1.80;97.50
47779;DHT22;33538;48.432;11.350;2024-01-15T06:41:44;-1.80;97.60
47779;DHT22;33538;48.432;11.350;2024-01-15T06:44:11;-1.80;97.60
47779;DHT22;33538;48.432;11.350;2024-01-15T06:46:42;-1.70;97.60
47779;DHT22;33538;48.432;11.350;2024-01-15T06:49:09;-1.80;97.60
47779;DHT22;33538;48.432;11.350;2024-01-15T06:51:36;-1.70;97.60
47779;DHT22;33538;48.432;11.350;2024-01-15T06:54:03;-1.70;97.70
47779;DHT22;33538;48.432;11.350;2024-01-15T06:56:30;-1.70;97.70
47779;DHT22;33538;48.432;11.350;2024-01-15T06:58:58;-1.70;97.70
47779;DHT22;33538;48.432;11.350;2024-01-15T07:01:25;-1.70;97.80
47779;DHT22;33538;48.432;11.350;2024-01-15T07:03:52;-1.70;97.70
47779;DHT22;33538;48.432;11.350;2024-01-15T07:06:19;-1.70;97.70
47779;DHT22;33538;48.432;11.350;2024-01-15T07:08:46;-1.70;97.70
47779;DHT22;33538;48.432;11.350;2024-01-15T07:11:13;-1.70;97.80
47779;DHT22;33538;48.432;11.350;2024-01-15T07:13:40;-1.70;97.90
47779;DHT22;33538;48.432;11.350;2024-01-15T07:16:08;-1.60;97.90
47779;DHT22;33538;48.432;11.350;2024-01-15T07:18:35;-1.60;97.90
47779;DHT22;33538;48.432;11.350;2024-01-15T07:21:02;-1.60;98.00
47779;DHT22;33538;48.432;11.350;2024-01-15T07:23:31;-1.60;97.90
47779;DHT22;33538;48.432;11.350;2024-01-15T07:25:58;-1.60;97.90
47779;DHT22;33538;48.432;11.350;2024-01-15T07:28:24;-1.60;98.00
47779;DHT22;33538;48.432;11.350;2024-01-15T07:30:51;-1.60;98.30
47779;DHT22;33538;48.432;11.350;2024-01-15T07:33:19;-1.60;97.90
47779;DHT22;33538;48.432;11.350;2024-01-15T07:35:46;-1.60;97.90
47779;DHT22;33538;48.432;11.350;2024-01-15T07:38:13;-1.60;98.00
47779;DHT22;33538;48.432;11.350;2024-01-15T07:40:40;-1.60;98.00
47779;DHT22;33538;48.432;11.350;2024-01-15T07:43:07;-1.60;98.00
47779;DHT22;33538;48.432;11.350;2024-01-15T07:45:34;-1.50;98.00
47779;DHT22;33538;48.432;11.350;2024-01-15T07:48:01;-1.60;98.00
47779;DHT22;33538;48.432;11.350;2024-01-15T07:50:29;-1.50;98.00
47779;DHT22;33538;48.432;11.350;2024-01-15T07:52:56;-1.50;98.00
47779;DHT22;33538;48.432;11.350;2024-01-15T07:55:23;-1.60;98.00
47779;DHT22;33538;48.432;11.350;2024-01-15T07:57:49;-1.50;98.00
47779;DHT22;33538;48.432;11.350;2024-01-15T08:00:28;-1.50;98.10
47779;DHT22;33538;48.432;11.350;2024-01-15T08:02:55;-1.50;98.10
47779;DHT22;33538;48.432;11.350;2024-01-15T08:05:22;-1.50;98.30
47779;DHT22;33538;48.432;11.350;2024-01-15T08:07:50;-1.50;98.40
47779;DHT22;33538;48.432;11.350;2024-01-15T08:10:17;-1.50;98.50
47779;DHT22;33538;48.432;11.350;2024-01-15T08:12:44;-1.50;98.40
47779;DHT22;33538;48.432;11.350;2024-01-15T08:15:10;-1.50;98.40
47779;DHT22;33538;48.432;11.350;2024-01-15T08:17:37;-1.50;98.40
47779;DHT22;33538;48.432;11.350;2024-01-15T08:20:05;-1.40;98.50
47779;DHT22;33538;48.432;11.350;2024-01-15T08:22:32;-1.40;98.60
47779;DHT22;33538;48.432;11.350;2024-01-15T08:25:00;-1.40;98.50
47779;DHT22;33538;48.432;11.350;2024-01-15T08:27:27;-1.40;98.60
47779;DHT22;33538;48.432;11.350;2024-01-15T08:29:55;-1.40;98.60
47779;DHT22;33538;48.432;11.350;2024-01-15T08:32:22;-1.40;98.50
47779;DHT22;33538;48.432;11.350;2024-01-15T08:34:49;-1.40;98.50
47779;DHT22;33538;48.432;11.350;2024-01-15T08:37:16;-1.40;98.60
47779;DHT22;33538;48.432;11.350;2024-01-15T08:39:43;-1.40;98.50
47779;DHT22;33538;48.432;11.350;2024-01-15T08:42:11;-1.40;98.50
47779;DHT22;33538;48.432;11.350;2024-01-15T08:44:38;-1.40;98.60
47779;DHT22;33538;48.432;11.350;2024-01-15T08:47:04;-1.40;98.50
47779;DHT22;33538;48.432;11.350;2024-01-15T08:49:31;-1.40;98.50
47779;DHT22;33538;48.432;11.350;2024-01-15T08:51:58;-1.40;98.50
47779;DHT22;33538;48.432;11.350;2024-01-15T08:54:25;-1.40;98.50
47779;DHT22;33538;48.432;11.350;2024-01-15T08:56:52;-1.40;98.60
47779;DHT22;33538;48.432;11.350;2024-01-15T08:59:20;-1.30;98.80
47779;DHT22;33538;48.432;11.350;2024-01-15T09:01:47;-1.30;99.00
47779;DHT22;33538;48.432;11.350;2024-01-15T09:04:14;-1.30;98.70
47779;DHT22;33538;48.432;11.350;2024-01-15T09:06:44;-1.30;98.60
47779;DHT22;33538;48.432;11.350;2024-01-15T09:09:11;-1.30;98.60
47779;DHT22;33538;48.432;11.350;2024-01-15T09:11:37;-1.20;98.50
47779;DHT22;33538;48.432;11.350;2024-01-15T09:14:04;-1.30;98.30
47779;DHT22;33538;48.432;11.350;2024-01-15T09:16:32;-1.20;98.30
47779;DHT22;33538;48.432;11.350;2024-01-15T09:18:59;-1.20;98.20
47779;DHT22;33538;48.432;11.350;2024-01-15T09:21:26;-1.30;98.10
47779;DHT22;33538;48.432;11.350;2024-01-15T09:23:53;-1.20;98.20
47779;DHT22;33538;48.432;11.350;2024-01-15T09:26:20;-1.30;98.10
47779;DHT22;33538;48.432;11.350;2024-01-15T09:28:46;-1.30;98.10
47779;DHT22;33538;48.432;11.350;2024-01-15T09:31:13;-1.20;98.10
47779;DHT22;33538;48.432;11.350;2024-01-15T09:33:41;-1.20;98.10
47779;DHT22;33538;48.432;11.350;2024-01-15T09:36:08;-1.20;98.10
47779;DHT22;33538;48.432;11.350;2024-01-15T09:38:35;-1.20;98.00
47779;DHT22;33538;48.432;11.350;2024-01-15T09:41:02;-1.20;98.10
47779;DHT22;33538;48.432;11.350;2024-01-15T09:43:29;-1.20;98.00
47779;DHT22;33538;48.432;11.350;2024-01-15T09:45:56;-1.20;98.10
47779;DHT22;33538;48.432;11.350;2024-01-15T09:48:23;-1.10;98.00
47779;DHT22;33538;48.432;11.350;2024-01-15T09:50:52;-1.10;98.00
47779;DHT22;33538;48.432;11.350;2024-01-15T09:53:19;-1.10;98.00
47779;DHT22;33538;48.432;11.350;2024-01-15T09:55:47;-1.10;98.10
47779;DHT22;33538;48.432;11.350;2024-01-15T09:58:16;-1.10;98.00
47779;DHT22;33538;48.432;11.350;2024-01-15T10:00:44;-1.10;98.10
47779;DHT22;33538;48.432;11.350;2024-01-15T10:03:11;-1.10;98.10
47779;DHT22;33538;48.432;11.350;2024-01-15T10:05:39;-1.10;98.10
47779;DHT22;33538;48.432;11.350;2024-01-15T10:08:07;-1.10;98.10
47779;DHT22;33538;48.432;11.350;2024-01-15T10:10:36;-1.10;98.20
47779;DHT22;33538;48.432;11.350;2024-01-15T10:13:04;-1.10;98.10
47779;DHT22;33538;48.432;11.350;2024-01-15T10:15:34;-1.10;98.20
47779;DHT22;33538;48.432;11.350;2024-01-15T10:18:00;-1.10;98.20
47779;DHT22;33538;48.432;11.350;2024-01-15T10:20:27;-1.00;98.20
47779;DHT22;33538;48.432;11.350;2024-01-15T10:22:55;-1.10;98.10
47779;DHT22;33538;48.432;11.350;2024-01-15T10:25:24;-1.10;98.10
47779;DHT22;33538;48.432;11.350;2024-01-15T10:28:00;-1.00;98.20
47779;DHT22;33538;48.432;11.350;2024-01-15T10:30:27;-1.10;98.20
47779;DHT22;33538;48.432;11.350;2024-01-15T10:32:58;-1.00;98.20
47779;DHT22;33538;48.432;11.350;2024-01-15T10:35:27;-1.00;98.20
47779;DHT22;33538;48.432;11.350;2024-01-15T10:37:53;-1.00;98.20
47779;DHT22;33538;48.432;11.350;2024-01-15T10:40:20;-1.00;98.30
47779;DHT22;33538;48.432;11.350;2024-01-15T10:42:48;-1.00;98.40
47779;DHT22;33538;48.432;11.350;2024-01-15T10:45:16;-1.00;98.30
47779;DHT22;33538;48.432;11.350;2024-01-15T10:47:43;-1.00;98.30
47779;DHT22;33538;48.432;11.350;2024-01-15T10:50:10;-1.00;98.30
47779;DHT22;33538;48.432;11.350;2024-01-15T10:52:38;-1.00;98.20
47779;DHT22;33538;48.432;11.350;2024-01-15T10:55:07;-0.90;98.20
47779;DHT22;33538;48.432;11.350;2024-01-15T10:57:41;-0.90;98.20
47779;DHT22;33538;48.432;11.350;2024-01-15T11:00:12;-0.90;98.20
47779;DHT22;33538;48.432;11.350;2024-01-15T11:02:39;-0.90;98.20
47779;DHT22;33538;48.432;11.350;2024-01-15T11:05:06;-0.90;98.20
47779;DHT22;33538;48.432;11.350;2024-01-15T11:07:33;-0.90;98.10
47779;DHT22;33538;48.432;11.350;2024-01-15T11:10:03;-0.80;98.20
47779;DHT22;33538;48.432;11.350;2024-01-15T11:12:31;-0.80;98.20
47779;DHT22;33538;48.432;11.350;2024-01-15T11:15:02;-0.70;98.10
47779;DHT22;33538;48.432;11.350;2024-01-15T11:18:00;-0.70;98.00
47779;DHT22;33538;48.432;11.350;2024-01-15T11:20:28;-0.70;98.00
47779;DHT22;33538;48.432;11.350;2024-01-15T11:22:55;-0.70;97.90
47779;DHT22;33538;48.432;11.350;2024-01-15T11:25:21;-0.70;97.80
47779;DHT22;33538;48.432;11.350;2024-01-15T11:27:50;-0.70;97.90
47779;DHT22;33538;48.432;11.350;2024-01-15T11:30:18;-0.70;98.00
47779;DHT22;33538;48.432;11.350;2024-01-15T11:32:46;-0.70;98.20
47779;DHT22;33538;48.432;11.350;2024-01-15T11:35:14;-0.70;98.10
47779;DHT22;33538;48.432;11.350;2024-01-15T11:37:57;-0.60;98.20
47779;DHT22;33538;48.432;11.350;2024-01-15T11:40:37;-0.60;98.20
47779;DHT22;33538;48.432;11.350;2024-01-15T11:43:05;-0.60;98.40
47779;DHT22;33538;48.432;11.350;2024-01-15T11:45:32;-0.60;98.40
47779;DHT22;33538;48.432;11.350;2024-01-15T11:48:15;-0.60;98.50
47779;DHT22;33538;48.432;11.350;2024-01-15T11:50:44;-0.60;98.50
47779;DHT22;33538;48.432;11.350;2024-01-15T11:53:17;-0.60;98.50
47779;DHT22;33538;48.432;11.350;2024-01-15T11:55:45;-0.60;98.60
47779;DHT22;33538;48.432;11.350;2024-01-15T11:58:11;-0.60;98.60
47779;DHT22;33538;48.432;11.350;2024-01-15T12:00:43;-0.60;98.50
47779;DHT22;33538;48.432;11.350;2024-01-15T12:03:12;-0.60;98.60
47779;DHT22;33538;48.432;11.350;2024-01-15T12:05:39;-0.60;98.50
47779;DHT22;33538;48.432;11.350;2024-01-15T12:08:07;-0.60;98.60
47779;DHT22;33538;48.432;11.350;2024-01-15T12:10:33;-0.60;98.80
47779;DHT22;33538;48.432;11.350;2024-01-15T12:13:04;-0.60;98.70
47779;DHT22;33538;48.432;11.350;2024-01-15T12:15:32;-0.60;98.70
47779;DHT22;33538;48.432;11.350;2024-01-15T12:18:00;-0.60;98.90
47779;DHT22;33538;48.432;11.350;2024-01-15T12:20:30;-0.60;99.00
47779;DHT22;33538;48.432;11.350;2024-01-15T12:22:57;-0.50;99.20
47779;DHT22;33538;48.432;11.350;2024-01-15T12:25:30;-0.50;99.00
47779;DHT22;33538;48.432;11.350;2024-01-15T12:27:57;-0.50;99.00
47779;DHT22;33538;48.432;11.350;2024-01-15T12:30:26;-0.50;99.10
47779;DHT22;33538;48.432;11.350;2024-01-15T12:32:53;-0.50;99.00
47779;DHT22;33538;48.432;11.350;2024-01-15T12:35:20;-0.50;99.20
47779;DHT22;33538;48.432;11.350;2024-01-15T12:37:49;-0.50;99.40
47779;DHT22;33538;48.432;11.350;2024-01-15T12:40:19;-0.50;99.40
47779;DHT22;33538;48.432;11.350;2024-01-15T12:42:46;-0.50;99.30
47779;DHT22;33538;48.432;11.350;2024-01-15T12:45:13;-0.50;99.20
47779;DHT22;33538;48.432;11.350;2024-01-15T12:47:41;-0.50;99.30
47779;DHT22;33538;48.432;11.350;2024-01-15T12:50:09;-0.50;99.40
47779;DHT22;33538;48.432;11.350;2024-01-15T12:52:45;-0.40;99.40
47779;DHT22;33538;48.432;11.350;2024-01-15T12:55:14;-0.40;99.50
47779;DHT22;33538;48.432;11.350;2024-01-15T12:57:41;-0.40;99.40
47779;DHT22;33538;48.432;11.350;2024-01-15T13:00:08;-0.40;99.50
47779;DHT22;33538;48.432;11.350;2024-01-15T13:02:35;-0.40;99.40
47779;DHT22;33538;48.432;11.350;2024-01-15T13:05:03;-0.40;99.80
47779;DHT22;33538;48.432;11.350;2024-01-15T13:07:31;-0.40;99.60
47779;DHT22;33538;48.432;11.350;2024-01-15T13:09:57;-0.40;99.70
47779;DHT22;33538;48.432;11.350;2024-01-15T13:12:26;-0.40;99.70
47779;DHT22;33538;48.432;11.350;2024-01-15T13:14:53;-0.40;99.60
47779;DHT22;33538;48.432;11.350;2024-01-15T13:17:19;-0.40;99.80
47779;DHT22;33538;48.432;11.350;2024-01-15T13:19:46;-0.30;99.60
47779;DHT22;33538;48.432;11.350;2024-01-15T13:22:13;-0.30;99.60
47779;DHT22;33538;48.432;11.350;2024-01-15T13:24:40;-0.40;99.60
47779;DHT22;33538;48.432;11.350;2024-01-15T13:27:07;-0.30;99.60
47779;DHT22;33538;48.432;11.350;2024-01-15T13:29:35;-0.30;99.60
47779;DHT22;33538;48.432;11.350;2024-01-15T13:32:02;-0.30;99.60
47779;DHT22;33538;48.432;11.350;2024-01-15T13:34:29;-0.30;99.60
47779;DHT22;33538;48.432;11.350;2024-01-15T13:36:56;-0.30;99.60
47779;DHT22;33538;48.432;11.350;2024-01-15T13:39:23;-0.40;99.70
47779;DHT22;33538;48.432;11.350;2024-01-15T13:41:50;-0.30;99.80
47779;DHT22;33538;48.432;11.350;2024-01-15T13:44:16;-0.30;99.80
47779;DHT22;33538;48.432;11.350;2024-01-15T13:46:44;-0.30;99.90
47779;DHT22;33538;48.432;11.350;2024-01-15T13:49:11;-0.30;99.80
47779;DHT22;33538;48.432;11.350;2024-01-15T13:51:38;-0.30;99.90
47779;DHT22;33538;48.432;11.350;2024-01-15T13:54:05;-0.30;99.90
47779;DHT22;33538;48.432;11.350;2024-01-15T13:56:32;-0.30;99.90
47779;DHT22;33538;48.432;11.350;2024-01-15T13:58:58;-0.30;99.90
47779;DHT22;33538;48.432;11.350;2024-01-15T14:01:25;-0.30;99.90
47779;DHT22;33538;48.432;11.350;2024-01-15T14:03:54;-0.30;99.90
47779;DHT22;33538;48.432;11.350;2024-01-15T14:06:21;-0.30;99.90
47779;DHT22;33538;48.432;11.350;2024-01-15T14:08:48;-0.30;99.90
47779;DHT22;33538;48.432;11.350;2024-01-15T14:11:14;-0.30;99.90
47779;DHT22;33538;48.432;11.350;2024-01-15T14:13:41;-0.30;99.90
47779;DHT22;33538;48.432;11.350;2024-01-15T14:16:08;-0.30;99.90
47779;DHT22;33538;48.432;11.350;2024-01-15T14:18:35;-0.30;99.90
47779;DHT22;33538;48.432;11.350;2024-01-15T14:21:04;-0.30;99.90
47779;DHT22;33538;48.432;11.350;2024-01-15T14:23:30;-0.30;99.90
47779;DHT22;33538;48.432;11.350;2024-01-15T14:25:57;-0.30;99.90
47779;DHT22;33538;48.432;11.350;2024-01-15T14:28:24;-0.30;99.90
47779;DHT22;33538;48.432;11.350;2024-01-15T14:30:51;-0.30;99.90
47779;DHT22;33538;48.432;11.350;2024-01-15T14:33:18;-0.30;99.90
47779;DHT22;33538;48.432;11.350;2024-01-15T14:35:45;-0.30;99.90
47779;DHT22;33538;48.432;11.350;2024-01-15T14:38:13;-0.30;99.90
47779;DHT22;33538;48.432;11.350;2024-01-15T14:40:40;-0.30;99.90
47779;DHT22;33538;48.432;11.350;2024-01-15T14:43:07;-0.20;99.90
47779;DHT22;33538;48.432;11.350;2024-01-15T14:45:34;-0.20;99.90
47779;DHT22;33538;48.432;11.350;2024-01-15T14:48:01;-0.20;99.90
47779;DHT22;33538;48.432;11.350;2024-01-15T14:50:28;-0.20;99.90
47779;DHT22;33538;48.432;11.350;2024-01-15T14:52:54;-0.20;99.90
47779;DHT22;33538;48.432;11.350;2024-01-15T14:55:23;-0.20;99.90
47779;DHT22;33538;48.432;11.350;2024-01-15T14:57:50;-0.20;99.90
47779;DHT22;33538;48.432;11.350;2024-01-15T15:00:17;-0.20;99.90
47779;DHT22;33538;48.432;11.350;2024-01-15T15:02:44;-0.20;99.90
47779;DHT22;33538;48.432;11.350;2024-01-15T15:05:11;-0.20;99.90
47779;DHT22;33538;48.432;11.350;2024-01-15T15:07:38;-0.20;99.90
47779;DHT22;33538;48.432;11.350;2024-01-15T15:10:06;-0.20;99.90
47779;DHT22;33538;48.432;11.350;2024-01-15T15:12:34;-0.20;99.90
47779;DHT22;33538;48.432;11.350;2024-01-15T15:15:01;-0.20;99.90
47779;DHT22;33538;48.432;11.350;2024-01-15T15:17:36;-0.20;99.90